Time;durP1;ratioP1;P1;durP2;ratioP2;P2;SDS_P1;SDS_P2;PMS_P1;PMS_P2;Temp;Humidity;BMP_temperature;BMP_pressure;BME280_temperature;BME280_humidity;BME280_pressure;Samples;Min_cycle;Max_cycle;Signal;HPM_P1;HPM_P2
2021/11/24 00:00:36;;;;;;;192.98;54.22;;;;;;;;;;5056964;28;20270;-85
2021/11/24 00:03:04;;;;;;;192.55;52.53;;;;;;;;;;5056874;28;20310;-84
2021/11/24 00:05:31;;;;;;;541.92;76.47;;;;;;;;;;5056964;28;20200;-85
2021/11/24 00:07:59;;;;;;;170.85;51.17;;;;;;;;;;5059387;28;20199;-85
2021/11/24 00:10:31;;;;;;;404.75;65.10;;;;;;;;;;5060933;28;20190;-84
2021/11/24 00:12:59;;;;;;;208.55;56.60;;;;;;;;;;5061169;28;20192;-83
2021/11/24 00:15:26;;;;;;;526.13;77.88;;;;;;;;;;5067729;28;20214;-85
2021/11/24 00:17:54;;;;;;;323.95;60.45;;;;;;;;;;5063275;28;20226;-85
2021/11/24 00:20:21;;;;;;;269.50;58.88;;;;;;;;;;5062641;28;20242;-85
2021/11/24 00:22:49;;;;;;;334.38;61.58;;;;;;;;;;5058980;28;20194;-84
2021/11/24 00:25:16;;;;;;;154.25;52.40;;;;;;;;;;5056745;28;20192;-85
2021/11/24 00:27:47;;;;;;;256.05;59.70;;;;;;;;;;5038785;28;20390;-85
2021/11/24 00:30:14;;;;;;;317.08;59.13;;;;;;;;;;5038773;28;20263;-85
2021/11/24 00:32:42;;;;;;;476.88;73.68;;;;;;;;;;5056622;28;20199;-85
2021/11/24 00:35:10;;;;;;;389.63;67.55;;;;;;;;;;5056559;28;20191;-85
2021/11/24 00:37:37;;;;;;;200.82;52.90;;;;;;;;;;5056144;28;20630;-85
2021/11/24 00:40:06;;;;;;;160.35;52.33;;;;;;;;;;5056309;28;20235;-84
2021/11/24 00:42:33;;;;;;;265.77;55.65;;;;;;;;;;5056254;28;20229;-85
2021/11/24 00:45:02;;;;;;;160.43;53.47;;;;;;;;;;5056390;28;20202;-85
2021/11/24 00:47:30;;;;;;;195.88;54.30;;;;;;;;;;5055815;28;20188;-85
2021/11/24 00:49:57;;;;;;;251.38;55.88;;;;;;;;;;5056206;28;20237;-84
2021/11/24 00:52:26;;;;;;;246.65;56.75;;;;;;;;;;5055403;28;20202;-85
2021/11/24 00:54:53;;;;;;;267.27;56.35;;;;;;;;;;5055726;28;20720;-85
2021/11/24 00:57:21;;;;;;;227.70;55.88;;;;;;;;;;5055771;28;20192;-84
2021/11/24 00:59:48;;;;;;;247.75;55.38;;;;;;;;;;5056029;28;20190;-84
2021/11/24 01:02:21;;;;;;;205.70;53.35;;;;;;;;;;5057533;28;20216;-85
2021/11/24 01:04:48;;;;;;;179.85;53.45;;;;;;;;;;5056028;28;20196;-84
2021/11/24 01:07:16;;;;;;;182.82;53.22;;;;;;;;;;5055700;28;20198;-85
2021/11/24 01:09:43;;;;;;;348.33;70.13;;;;;;;;;;5055990;28;20224;-84
2021/11/24 01:12:11;;;;;;;217.27;54.95;;;;;;;;;;5060496;28;20224;-85
2021/11/24 01:14:39;;;;;;;224.10;52.50;;;;;;;;;;5059794;28;20211;-85
2021/11/24 01:17:06;;;;;;;201.15;51.15;;;;;;;;;;5059167;28;20287;-85
2021/11/24 01:19:35;;;;;;;225.98;53.85;;;;;;;;;;5039035;28;20234;-85
2021/11/24 01:22:02;;;;;;;231.68;53.83;;;;;;;;;;5055796;28;20216;-85
2021/11/24 01:24:30;;;;;;;256.02;60.47;;;;;;;;;;5055484;28;20551;-85
2021/11/24 01:26:57;;;;;;;204.87;54.30;;;;;;;;;;5038522;28;20214;-85
2021/11/24 01:29:25;;;;;;;478.23;73.25;;;;;;;;;;5056272;28;20420;-85
2021/11/24 01:31:52;;;;;;;211.30;53.67;;;;;;;;;;5055000;28;20203;-85
2021/11/24 01:34:20;;;;;;;206.55;52.22;;;;;;;;;;5055582;28;20265;-85
2021/11/24 01:36:49;;;;;;;240.13;54.80;;;;;;;;;;5055815;28;20203;-85
2021/11/24 01:39:17;;;;;;;225.75;56.65;;;;;;;;;;5055747;28;20246;-85
2021/11/24 01:41:45;;;;;;;240.05;53.20;;;;;;;;;;5055231;28;20223;-85
2021/11/24 01:44:19;;;;;;;271.65;57.72;;;;;;;;;;5055632;28;20195;-85
2021/11/24 01:46:51;;;;;;;150.80;51.80;;;;;;;;;;5055244;28;20651;-85
2021/11/24 01:49:19;;;;;;;189.23;51.75;;;;;;;;;;5055921;28;20192;-84
2021/11/24 01:51:46;;;;;;;331.70;59.22;;;;;;;;;;5055551;28;20217;-85
2021/11/24 01:54:15;;;;;;;114.55;49.35;;;;;;;;;;5055694;28;20184;-85
2021/11/24 01:56:43;;;;;;;376.20;63.85;;;;;;;;;;5057597;28;20308;-85
2021/11/24 01:59:11;;;;;;;182.75;50.50;;;;;;;;;;5054589;28;20197;-85
2021/11/24 02:01:39;;;;;;;129.73;50.63;;;;;;;;;;5055389;28;20228;-85
2021/11/24 02:04:07;;;;;;;176.38;50.97;;;;;;;;;;5053554;28;20207;-85
2021/11/24 02:06:34;;;;;;;134.02;51.78;;;;;;;;;;5055691;28;20201;-85
2021/11/24 02:09:02;;;;;;;195.30;51.22;;;;;;;;;;5037665;28;20222;-85
2021/11/24 02:11:31;;;;;;;456.42;71.55;;;;;;;;;;5054492;28;20657;-84
2021/11/24 02:13:58;;;;;;;211.93;53.75;;;;;;;;;;5057214;28;20188;-85
2021/11/24 02:16:26;;;;;;;222.10;54.45;;;;;;;;;;5036971;28;20190;-85
2021/11/24 02:18:53;;;;;;;175.13;50.75;;;;;;;;;;5055125;28;20186;-85
2021/11/24 02:21:22;;;;;;;192.65;52.75;;;;;;;;;;5054296;28;20695;-85
2021/11/24 02:23:49;;;;;;;275.52;61.28;;;;;;;;;;5055143;28;20195;-85
2021/11/24 02:26:17;;;;;;;227.60;54.67;;;;;;;;;;5055119;28;20760;-85
2021/11/24 02:28:45;;;;;;;151.93;48.00;;;;;;;;;;5055805;28;20223;-85
2021/11/24 02:31:21;;;;;;;147.55;49.72;;;;;;;;;;5059444;28;20192;-85
2021/11/24 02:33:52;;;;;;;165.30;50.65;;;;;;;;;;5056879;28;20198;-85
2021/11/24 02:36:20;;;;;;;272.30;54.67;;;;;;;;;;5057694;28;20533;-85
2021/11/24 02:38:49;;;;;;;166.23;49.97;;;;;;;;;;5055229;28;20282;-85
2021/11/24 02:41:17;;;;;;;146.65;47.95;;;;;;;;;;5054540;28;20235;-85
2021/11/24 02:43:45;;;;;;;113.93;46.57;;;;;;;;;;5054692;28;20287;-84
2021/11/24 02:46:12;;;;;;;220.40;57.03;;;;;;;;;;5054509;28;20468;-85
2021/11/24 02:48:40;;;;;;;192.75;50.45;;;;;;;;;;5054640;28;20192;-85
2021/11/24 02:51:07;;;;;;;144.00;50.13;;;;;;;;;;5054265;28;20187;-85
2021/11/24 02:53:36;;;;;;;129.27;46.30;;;;;;;;;;5057119;28;20453;-85
2021/11/24 02:56:06;;;;;;;166.13;49.72;;;;;;;;;;5054957;28;20184;-85
2021/11/24 02:58:33;;;;;;;138.20;49.20;;;;;;;;;;5054262;28;20192;-85
2021/11/24 03:01:02;;;;;;;140.93;47.13;;;;;;;;;;5053873;28;20191;-85
2021/11/24 03:03:30;;;;;;;120.40;45.70;;;;;;;;;;5054924;28;20232;-85
2021/11/24 03:05:57;;;;;;;105.45;47.80;;;;;;;;;;5054651;28;20192;-85
2021/11/24 03:08:24;;;;;;;144.60;47.30;;;;;;;;;;5054800;28;20227;-84
2021/11/24 03:10:52;;;;;;;115.18;45.53;;;;;;;;;;5054333;28;20499;-85
2021/11/24 03:13:22;;;;;;;107.15;46.38;;;;;;;;;;5054414;28;20209;-84
2021/11/24 03:15:49;;;;;;;122.18;47.20;;;;;;;;;;5054259;28;20214;-85
2021/11/24 03:18:16;;;;;;;194.70;50.13;;;;;;;;;;5053510;28;20195;-84
2021/11/24 03:20:44;;;;;;;117.13;47.43;;;;;;;;;;5054521;28;20191;-85
2021/11/24 03:23:11;;;;;;;150.88;49.08;;;;;;;;;;5035609;28;20830;-85
2021/11/24 03:25:39;;;;;;;193.13;54.90;;;;;;;;;;5053453;28;20200;-85
2021/11/24 03:28:06;;;;;;;95.43;43.77;;;;;;;;;;5054925;28;20787;-85
2021/11/24 03:30:35;;;;;;;171.30;51.97;;;;;;;;;;5055073;28;20437;-85
2021/11/24 03:33:04;;;;;;;152.13;51.37;;;;;;;;;;5056206;28;20474;-85
2021/11/24 03:35:32;;;;;;;134.15;47.05;;;;;;;;;;5057456;28;20416;-85
2021/11/24 03:38:01;;;;;;;93.95;43.88;;;;;;;;;;5055300;28;20189;-85
2021/11/24 03:40:30;;;;;;;119.75;47.60;;;;;;;;;;5056701;28;20242;-85
2021/11/24 03:42:58;;;;;;;100.78;46.58;;;;;;;;;;5055642;28;20220;-86
2021/11/24 03:45:27;;;;;;;96.15;45.97;;;;;;;;;;5057320;28;20552;-85
2021/11/24 03:47:56;;;;;;;159.50;48.77;;;;;;;;;;5055273;28;20202;-85
2021/11/24 03:50:23;;;;;;;121.22;45.22;;;;;;;;;;5054321;28;20802;-85
2021/11/24 03:52:51;;;;;;;149.43;47.58;;;;;;;;;;5054310;28;20191;-84
2021/11/24 03:55:19;;;;;;;192.98;51.35;;;;;;;;;;5054525;28;20195;-85
2021/11/24 03:57:48;;;;;;;110.68;45.00;;;;;;;;;;5054653;28;20199;-84
2021/11/24 04:00:18;;;;;;;134.32;46.60;;;;;;;;;;5055717;28;20188;-85
2021/11/24 04:02:45;;;;;;;329.77;62.25;;;;;;;;;;5053965;28;20220;-85
2021/11/24 04:05:15;;;;;;;188.77;49.00;;;;;;;;;;5053514;28;20188;-85
2021/11/24 04:07:43;;;;;;;146.00;48.20;;;;;;;;;;5052939;28;20832;-84
2021/11/24 04:10:11;;;;;;;119.87;43.17;;;;;;;;;;5054591;28;20195;-85
2021/11/24 04:24:46;;;;;;;148.57;45.83;;;;;;;;;;5016100;28;20454;-85
2021/11/24 04:36:05;;;;;;;133.02;46.60;;;;;;;;;;5057792;28;20413;-85
2021/11/24 04:42:07;;;;;;;184.33;49.30;;;;;;;;;;5055029;28;20405;-85
2021/11/24 04:45:02;;;;;;;193.50;52.35;;;;;;;;;;5058062;28;20424;-86
2021/11/24 04:54:18;;;;;;;130.00;47.05;;;;;;;;;;5057698;28;20418;-85
2021/11/24 04:59:48;;;;;;;155.57;48.47;;;;;;;;;;5057374;28;20327;-85
2021/11/24 05:20:55;;;;;;;136.40;45.13;;;;;;;;;;5055258;28;20495;-85
2021/11/24 05:58:43;;;;;;;154.07;50.63;;;;;;;;;;4958084;29;20250;-84
2021/11/24 06:01:11;;;;;;;122.93;49.27;;;;;;;;;;4961039;29;20447;-84
2021/11/24 06:03:38;;;;;;;377.73;69.35;;;;;;;;;;4961432;29;20474;-84
2021/11/24 06:06:06;;;;;;;200.00;49.53;;;;;;;;;;4956522;28;20230;-84
2021/11/24 06:08:33;;;;;;;212.55;53.25;;;;;;;;;;4958257;29;20438;-84
2021/11/24 06:11:01;;;;;;;218.13;50.50;;;;;;;;;;4961567;29;20211;-83
2021/11/24 06:13:28;;;;;;;175.43;49.77;;;;;;;;;;4958967;29;20479;-85
2021/11/24 06:15:57;;;;;;;270.10;55.20;;;;;;;;;;4960235;29;20441;-84
2021/11/24 06:18:25;;;;;;;155.18;50.08;;;;;;;;;;4961171;29;20210;-84
2021/11/24 06:20:53;;;;;;;166.10;47.45;;;;;;;;;;4958556;29;20195;-84
2021/11/24 06:23:20;;;;;;;109.07;47.38;;;;;;;;;;4957546;29;20229;-84
2021/11/24 06:25:48;;;;;;;147.83;49.43;;;;;;;;;;4957432;29;20199;-84
2021/11/24 06:28:17;;;;;;;214.48;56.53;;;;;;;;;;4957242;29;20467;-84
2021/11/24 06:30:44;;;;;;;133.40;49.08;;;;;;;;;;4957573;29;20206;-84
2021/11/24 06:33:13;;;;;;;155.77;47.85;;;;;;;;;;4956557;29;20192;-85
2021/11/24 06:35:41;;;;;;;283.60;54.38;;;;;;;;;;4956064;29;20203;-84
2021/11/24 06:38:08;;;;;;;322.85;59.75;;;;;;;;;;4956495;29;20198;-83
2021/11/24 06:40:36;;;;;;;147.70;49.77;;;;;;;;;;4938412;29;20691;-84
2021/11/24 06:43:03;;;;;;;133.53;47.63;;;;;;;;;;4955869;29;20463;-84
2021/11/24 06:45:30;;;;;;;225.07;51.40;;;;;;;;;;4955716;29;20796;-85
2021/11/24 06:47:58;;;;;;;114.75;45.53;;;;;;;;;;4955424;29;20657;-84
2021/11/24 06:50:26;;;;;;;86.65;46.35;;;;;;;;;;4954832;28;20195;-84
2021/11/24 06:52:54;;;;;;;111.07;43.63;;;;;;;;;;4955756;29;20221;-84
2021/11/24 06:55:21;;;;;;;144.55;48.00;;;;;;;;;;4955555;29;20198;-84
2021/11/24 06:57:48;;;;;;;99.68;43.38;;;;;;;;;;4967574;28;20237;-84
2021/11/24 07:00:16;;;;;;;76.10;42.55;;;;;;;;;;4974642;28;20227;-84
2021/11/24 07:02:43;;;;;;;74.32;43.40;;;;;;;;;;4974525;28;20237;-84
2021/11/24 07:05:12;;;;;;;62.47;40.65;;;;;;;;;;4974532;28;20195;-84
2021/11/24 07:07:41;;;;;;;92.10;43.00;;;;;;;;;;4974623;28;20203;-85
2021/11/24 07:10:09;;;;;;;62.87;39.53;;;;;;;;;;4974857;28;20205;-85
2021/11/24 07:12:37;;;;;;;56.42;41.10;;;;;;;;;;4974400;28;20895;-85
2021/11/24 07:15:04;;;;;;;65.32;40.15;;;;;;;;;;4974514;28;20194;-85
2021/11/24 07:17:32;;;;;;;66.32;41.58;;;;;;;;;;4974410;28;20640;-84
2021/11/24 07:20:01;;;;;;;70.57;41.63;;;;;;;;;;4974137;28;20211;-85
2021/11/24 07:22:28;;;;;;;77.05;45.75;;;;;;;;;;4974276;28;20207;-85
2021/11/24 07:24:58;;;;;;;119.50;44.75;;;;;;;;;;4973965;28;20206;-87
2021/11/24 07:27:25;;;;;;;82.55;44.63;;;;;;;;;;4974892;28;20602;-85
2021/11/24 07:29:53;;;;;;;76.03;41.45;;;;;;;;;;4974460;28;20191;-84
2021/11/24 07:32:21;;;;;;;70.05;43.05;;;;;;;;;;4974817;28;20191;-84
2021/11/24 07:34:48;;;;;;;58.20;42.17;;;;;;;;;;4957213;28;20221;-83
2021/11/24 07:37:16;;;;;;;52.78;37.83;;;;;;;;;;4973906;28;20442;-81
2021/11/24 07:39:44;;;;;;;77.78;41.83;;;;;;;;;;4973637;28;20696;-82
2021/11/24 07:42:12;;;;;;;56.95;38.85;;;;;;;;;;4973488;28;20194;-82
2021/11/24 07:44:40;;;;;;;52.25;38.95;;;;;;;;;;4973399;28;20238;-82
2021/11/24 07:47:07;;;;;;;51.95;37.67;;;;;;;;;;4973484;28;20187;-82
2021/11/24 07:49:35;;;;;;;49.10;36.70;;;;;;;;;;4973722;28;20236;-83
2021/11/24 07:52:02;;;;;;;46.22;37.42;;;;;;;;;;4973371;28;20634;-83
2021/11/24 07:54:29;;;;;;;49.40;38.45;;;;;;;;;;4972337;28;20685;-88
2021/11/24 07:56:57;;;;;;;50.43;40.30;;;;;;;;;;4974075;28;20242;-91
2021/11/24 07:59:26;;;;;;;48.27;38.17;;;;;;;;;;4975615;28;20453;-93
2021/11/24 08:01:53;;;;;;;47.27;38.87;;;;;;;;;;4974734;28;20464;-82
2021/11/24 08:04:21;;;;;;;40.88;35.78;;;;;;;;;;4977699;28;20468;-82
2021/11/24 08:06:48;;;;;;;43.22;35.88;;;;;;;;;;4977268;28;20202;-83
2021/11/24 08:09:15;;;;;;;41.45;34.78;;;;;;;;;;4977432;28;20191;-84
2021/11/24 08:11:43;;;;;;;47.08;38.55;;;;;;;;;;4977285;28;20209;-83
2021/11/24 08:14:10;;;;;;;46.55;36.40;;;;;;;;;;4977484;28;20198;-84
2021/11/24 08:16:39;;;;;;;40.55;36.10;;;;;;;;;;4977025;28;20211;-84
2021/11/24 08:19:06;;;;;;;41.83;37.30;;;;;;;;;;4977481;28;20195;-87
2021/11/24 08:21:34;;;;;;;40.93;36.10;;;;;;;;;;4977641;28;20310;-84
2021/11/24 08:24:01;;;;;;;39.33;35.38;;;;;;;;;;4977240;28;20511;-84
2021/11/24 08:26:29;;;;;;;38.47;34.55;;;;;;;;;;4977320;28;20203;-84
2021/11/24 08:28:56;;;;;;;40.80;36.65;;;;;;;;;;4977264;28;20699;-85
2021/11/24 08:31:23;;;;;;;39.95;35.67;;;;;;;;;;4977732;28;20204;-86
2021/11/24 08:33:52;;;;;;;41.35;37.25;;;;;;;;;;4977612;28;20200;-86
2021/11/24 08:36:20;;;;;;;41.85;35.58;;;;;;;;;;4977340;28;20213;-86
2021/11/24 08:38:47;;;;;;;37.00;33.20;;;;;;;;;;4977601;28;20191;-84
2021/11/24 08:41:16;;;;;;;40.00;35.70;;;;;;;;;;4977403;28;20465;-86
2021/11/24 08:43:43;;;;;;;39.45;35.22;;;;;;;;;;4977460;28;20277;-85
2021/11/24 08:46:12;;;;;;;39.47;35.27;;;;;;;;;;4977264;28;20210;-85
2021/11/24 08:48:40;;;;;;;50.13;39.57;;;;;;;;;;4977280;28;20469;-85
2021/11/24 08:51:08;;;;;;;49.37;38.80;;;;;;;;;;4977414;28;20419;-85
2021/11/24 08:53:36;;;;;;;53.37;37.73;;;;;;;;;;4977400;28;20466;-86
2021/11/24 08:56:04;;;;;;;48.80;39.33;;;;;;;;;;4976794;28;20428;-84
2021/11/24 08:58:31;;;;;;;50.13;39.35;;;;;;;;;;4976738;28;20486;-85
2021/11/24 09:00:59;;;;;;;57.67;38.20;;;;;;;;;;4960035;28;20204;-85
2021/11/24 09:03:26;;;;;;;45.70;38.50;;;;;;;;;;4976616;28;20465;-85
2021/11/24 09:05:54;;;;;;;63.13;39.33;;;;;;;;;;4959769;28;20425;-85
2021/11/24 09:08:23;;;;;;;48.93;39.47;;;;;;;;;;4976373;28;20229;-85
2021/11/24 09:10:50;;;;;;;42.17;36.97;;;;;;;;;;4976417;28;20416;-83
2021/11/24 09:13:17;;;;;;;51.25;39.50;;;;;;;;;;4976256;28;20420;-84
2021/11/24 09:15:45;;;;;;;46.63;37.00;;;;;;;;;;4959727;28;20553;-84
2021/11/24 09:18:13;;;;;;;47.00;38.63;;;;;;;;;;4976181;28;20462;-85
2021/11/24 09:20:41;;;;;;;51.72;37.55;;;;;;;;;;4976367;28;20447;-84
2021/11/24 09:23:08;;;;;;;53.97;38.30;;;;;;;;;;4976486;28;20240;-83
2021/11/24 09:25:40;;;;;;;58.05;40.47;;;;;;;;;;4976393;28;20443;-84
2021/11/24 09:28:09;;;;;;;55.40;40.23;;;;;;;;;;4976365;28;20558;-83
2021/11/24 09:30:37;;;;;;;48.72;37.42;;;;;;;;;;4976380;28;20424;-84
2021/11/24 09:33:05;;;;;;;54.78;39.15;;;;;;;;;;4975774;28;20202;-84
2021/11/24 09:35:32;;;;;;;50.25;37.72;;;;;;;;;;4976268;28;20194;-84
2021/11/24 09:38:00;;;;;;;50.60;40.70;;;;;;;;;;4976267;28;20238;-84
2021/11/24 09:40:28;;;;;;;43.33;35.60;;;;;;;;;;4976270;28;20916;-84
2021/11/24 09:42:58;;;;;;;50.13;38.00;;;;;;;;;;4975740;28;20520;-83
2021/11/24 09:45:26;;;;;;;53.33;38.88;;;;;;;;;;4975551;28;20230;-83
2021/11/24 09:47:56;;;;;;;54.10;39.70;;;;;;;;;;4975682;28;20198;-83
2021/11/24 09:50:26;;;;;;;48.13;36.55;;;;;;;;;;4975824;28;20629;-86
2021/11/24 09:52:55;;;;;;;57.90;41.50;;;;;;;;;;4975494;28;20277;-83
2021/11/24 09:55:23;;;;;;;58.78;42.63;;;;;;;;;;4975374;28;20508;-83
2021/11/24 09:57:50;;;;;;;55.93;42.10;;;;;;;;;;4975853;28;20288;-91
2021/11/24 10:00:19;;;;;;;50.30;41.22;;;;;;;;;;4976744;28;20470;-94
2021/11/24 10:02:47;;;;;;;57.85;43.03;;;;;;;;;;4978137;28;20209;-84
2021/11/24 10:05:14;;;;;;;52.07;42.47;;;;;;;;;;4975308;28;20218;-83
2021/11/24 10:07:43;;;;;;;56.50;42.37;;;;;;;;;;4975218;28;20423;-84
2021/11/24 10:10:11;;;;;;;49.10;39.50;;;;;;;;;;4976180;28;20443;-90
2021/11/24 10:12:38;;;;;;;52.03;40.33;;;;;;;;;;4975771;28;20448;-85
2021/11/24 10:15:07;;;;;;;49.67;41.97;;;;;;;;;;4976009;28;20469;-89
2021/11/24 10:17:36;;;;;;;60.67;43.40;;;;;;;;;;4976117;28;20528;-88
2021/11/24 10:20:06;;;;;;;55.97;42.00;;;;;;;;;;4976399;28;20797;-88
2021/11/24 10:22:34;;;;;;;47.13;39.70;;;;;;;;;;4974837;28;20883;-83
2021/11/24 10:25:03;;;;;;;46.93;39.40;;;;;;;;;;4974025;28;20478;-84
2021/11/24 10:27:34;;;;;;;43.40;37.40;;;;;;;;;;4975213;28;20422;-84
2021/11/24 10:30:02;;;;;;;42.08;37.55;;;;;;;;;;4975054;28;20415;-83
2021/11/24 10:32:30;;;;;;;46.00;35.37;;;;;;;;;;4958306;28;20198;-91
2021/11/24 10:34:59;;;;;;;42.47;35.97;;;;;;;;;;4975174;28;20413;-83
2021/11/24 10:37:27;;;;;;;44.47;36.67;;;;;;;;;;4975013;28;20434;-83
2021/11/24 10:39:57;;;;;;;42.37;37.67;;;;;;;;;;4974762;28;20457;-86
2021/11/24 10:42:25;;;;;;;41.37;36.80;;;;;;;;;;4975242;28;20802;-83
2021/11/24 10:44:53;;;;;;;49.08;38.72;;;;;;;;;;4975980;28;20543;-88
2021/11/24 10:47:22;;;;;;;47.30;38.50;;;;;;;;;;4974609;28;20240;-84
2021/11/24 10:49:50;;;;;;;43.03;36.33;;;;;;;;;;4974901;28;20468;-83
2021/11/24 10:52:22;;;;;;;40.67;34.77;;;;;;;;;;4957273;28;20449;-84
2021/11/24 10:55:00;;;;;;;43.73;37.30;;;;;;;;;;4974489;28;20453;-83
2021/11/24 10:57:28;;;;;;;43.60;35.80;;;;;;;;;;4974069;28;20486;-84
2021/11/24 11:00:00;;;;;;;37.45;33.45;;;;;;;;;;4974708;28;20774;-83
2021/11/24 11:02:28;;;;;;;40.20;35.87;;;;;;;;;;4973993;28;20201;-84
2021/11/24 11:04:57;;;;;;;41.07;36.70;;;;;;;;;;4974119;28;20480;-85
2021/11/24 11:07:26;;;;;;;38.97;34.80;;;;;;;;;;4974067;28;20462;-83
2021/11/24 11:10:00;;;;;;;39.00;34.90;;;;;;;;;;4973971;28;20423;-83
2021/11/24 11:12:29;;;;;;;36.57;32.80;;;;;;;;;;4974305;28;20957;-84
2021/11/24 11:14:56;;;;;;;38.40;34.50;;;;;;;;;;4974511;28;20416;-85
2021/11/24 11:17:25;;;;;;;37.90;33.00;;;;;;;;;;4974390;28;20938;-85
2021/11/24 11:19:53;;;;;;;35.53;31.83;;;;;;;;;;4957593;28;20785;-85
2021/11/24 11:22:22;;;;;;;37.70;33.80;;;;;;;;;;4974511;28;20447;-85
2021/11/24 11:24:51;;;;;;;34.87;31.57;;;;;;;;;;4974333;28;20505;-86
2021/11/24 11:27:19;;;;;;;36.93;32.43;;;;;;;;;;4974460;28;20932;-85
2021/11/24 11:29:46;;;;;;;39.78;33.63;;;;;;;;;;4974528;28;20420;-85
2021/11/24 11:32:14;;;;;;;38.47;34.33;;;;;;;;;;4974682;28;20216;-85
2021/11/24 11:34:41;;;;;;;37.22;33.40;;;;;;;;;;4974833;28;20439;-85
2021/11/24 11:37:10;;;;;;;36.40;32.67;;;;;;;;;;4977820;28;20194;-85
2021/11/24 11:39:37;;;;;;;35.93;32.30;;;;;;;;;;4978524;28;20452;-85
2021/11/24 11:42:11;;;;;;;39.90;36.20;;;;;;;;;;4978825;28;20421;-85
2021/11/24 11:44:38;;;;;;;38.97;35.30;;;;;;;;;;4978537;28;20862;-85
2021/11/24 11:47:05;;;;;;;36.45;32.65;;;;;;;;;;4978242;28;20443;-85
2021/11/24 11:49:33;;;;;;;34.80;31.20;;;;;;;;;;4978263;28;20301;-85
2021/11/24 11:52:05;;;;;;;36.50;32.87;;;;;;;;;;4978347;28;20427;-84
2021/11/24 11:54:33;;;;;;;36.70;32.97;;;;;;;;;;4978406;28;20463;-84
2021/11/24 11:57:03;;;;;;;36.93;33.20;;;;;;;;;;4977494;28;20554;-83
2021/11/24 11:59:35;;;;;;;36.92;33.00;;;;;;;;;;4977586;28;20774;-84
2021/11/24 12:02:04;;;;;;;34.03;30.73;;;;;;;;;;4977742;28;20532;-84
2021/11/24 12:04:42;;;;;;;36.20;32.50;;;;;;;;;;4977337;28;21004;-84
2021/11/24 12:07:10;;;;;;;34.33;30.93;;;;;;;;;;4977494;28;20959;-84
2021/11/24 12:09:40;;;;;;;34.70;31.20;;;;;;;;;;4977659;28;20477;-84
2021/11/24 12:12:18;;;;;;;34.03;30.27;;;;;;;;;;4977710;28;20416;-84
2021/11/24 12:14:48;;;;;;;34.67;31.00;;;;;;;;;;4977608;28;20444;-84
2021/11/24 12:17:41;;;;;;;34.93;31.43;;;;;;;;;;4977507;28;20416;-83
2021/11/24 12:20:30;;;;;;;35.80;32.20;;;;;;;;;;4967810;28;20440;-84
2021/11/24 12:22:59;;;;;;;34.77;31.33;;;;;;;;;;4975854;28;20955;-84
2021/11/24 12:25:44;;;;;;;35.23;31.63;;;;;;;;;;4976022;28;20496;-84
2021/11/24 12:28:13;;;;;;;35.87;32.37;;;;;;;;;;4977597;28;20441;-84
2021/11/24 12:31:01;;;;;;;36.05;32.22;;;;;;;;;;4977237;28;20806;-83
2021/11/24 12:33:29;;;;;;;34.93;31.47;;;;;;;;;;4977411;28;20198;-83
2021/11/24 12:35:59;;;;;;;36.43;31.63;;;;;;;;;;4959673;28;20803;-84
2021/11/24 12:38:27;;;;;;;34.67;31.23;;;;;;;;;;4977189;28;20424;-83
2021/11/24 12:40:55;;;;;;;35.87;32.27;;;;;;;;;;4977150;28;20466;-83
2021/11/24 12:43:24;;;;;;;34.53;31.02;;;;;;;;;;4977014;28;20774;-83
2021/11/24 12:46:07;;;;;;;34.43;31.10;;;;;;;;;;4976917;28;20233;-84
2021/11/24 12:48:36;;;;;;;34.33;30.90;;;;;;;;;;4975961;28;20447;-82
2021/11/24 12:51:04;;;;;;;38.30;34.43;;;;;;;;;;4960175;28;20420;-83
2021/11/24 12:53:36;;;;;;;36.70;33.13;;;;;;;;;;4959532;28;20789;-84
2021/11/24 12:56:11;;;;;;;36.90;32.90;;;;;;;;;;4976304;28;20444;-84
2021/11/24 12:58:38;;;;;;;35.70;32.13;;;;;;;;;;4976353;28;20499;-83
2021/11/24 13:01:17;;;;;;;37.73;33.97;;;;;;;;;;4976473;28;20418;-84
2021/11/24 13:03:44;;;;;;;35.97;32.27;;;;;;;;;;4976553;28;20445;-83
2021/11/24 13:06:11;;;;;;;34.30;31.00;;;;;;;;;;4976756;28;20527;-84
2021/11/24 13:08:39;;;;;;;37.07;33.40;;;;;;;;;;4976648;28;20449;-84
2021/11/24 13:11:07;;;;;;;37.93;33.90;;;;;;;;;;4976489;28;20434;-83
2021/11/24 13:13:35;;;;;;;39.30;35.00;;;;;;;;;;4976537;28;20458;-85
2021/11/24 13:16:02;;;;;;;37.07;33.57;;;;;;;;;;4976840;28;20400;-85
2021/11/24 13:18:31;;;;;;;34.37;30.90;;;;;;;;;;4976983;28;20458;-84
2021/11/24 13:21:06;;;;;;;35.57;31.80;;;;;;;;;;4976432;28;20933;-85
2021/11/24 13:23:33;;;;;;;33.40;30.27;;;;;;;;;;4976633;28;20404;-85
2021/11/24 13:26:06;;;;;;;32.30;29.20;;;;;;;;;;4975666;28;20468;-85
2021/11/24 13:28:34;;;;;;;33.57;29.87;;;;;;;;;;4976304;28;20446;-85
2021/11/24 13:31:02;;;;;;;33.33;30.33;;;;;;;;;;4975921;28;20868;-84
2021/11/24 13:33:31;;;;;;;35.43;31.80;;;;;;;;;;4942784;28;20491;-84
2021/11/24 13:36:00;;;;;;;35.43;31.70;;;;;;;;;;4975946;28;20460;-85
2021/11/24 13:38:32;;;;;;;35.07;31.33;;;;;;;;;;4976042;28;20914;-85
2021/11/24 13:41:00;;;;;;;33.73;30.30;;;;;;;;;;4975812;28;20454;-86
2021/11/24 13:43:33;;;;;;;35.57;32.07;;;;;;;;;;4976296;28;20752;-92
2021/11/24 13:46:00;;;;;;;36.47;31.80;;;;;;;;;;4975951;28;20982;-83
2021/11/24 13:48:35;;;;;;;34.10;30.60;;;;;;;;;;4975807;28;20441;-84
2021/11/24 13:51:04;;;;;;;33.60;30.30;;;;;;;;;;4975577;28;20515;-84
2021/11/24 13:53:33;;;;;;;35.60;31.83;;;;;;;;;;4975694;28;20445;-84
2021/11/24 13:56:17;;;;;;;35.20;31.40;;;;;;;;;;4976063;28;20788;-84
2021/11/24 13:58:46;;;;;;;34.50;31.10;;;;;;;;;;4975729;28;20433;-84
2021/11/24 14:01:15;;;;;;;33.10;29.80;;;;;;;;;;4975321;28;20909;-84
2021/11/24 14:03:48;;;;;;;33.00;29.70;;;;;;;;;;4975666;28;20825;-84
2021/11/24 14:06:30;;;;;;;33.53;29.90;;;;;;;;;;4975662;28;20500;-84
2021/11/24 14:09:14;;;;;;;33.10;29.87;;;;;;;;;;4975474;28;20428;-85
2021/11/24 14:11:50;;;;;;;35.83;32.37;;;;;;;;;;4975028;28;20448;-84
2021/11/24 14:14:18;;;;;;;33.00;29.90;;;;;;;;;;4975588;28;20446;-86
2021/11/24 14:16:52;;;;;;;38.27;31.77;;;;;;;;;;4975042;28;20790;-85
2021/11/24 14:19:20;;;;;;;34.30;30.90;;;;;;;;;;4975734;28;20450;-84
2021/11/24 14:21:54;;;;;;;33.03;29.93;;;;;;;;;;4975030;28;20890;-85
2021/11/24 14:24:24;;;;;;;31.37;28.50;;;;;;;;;;4975282;28;20420;-85
2021/11/24 14:26:52;;;;;;;31.50;28.37;;;;;;;;;;4975180;28;20468;-85
2021/11/24 14:29:20;;;;;;;33.20;30.10;;;;;;;;;;4974918;28;20441;-84
2021/11/24 14:31:55;;;;;;;31.13;28.37;;;;;;;;;;4957509;28;20417;-84
2021/11/24 14:34:22;;;;;;;32.20;29.20;;;;;;;;;;4974398;28;20454;-84
2021/11/24 14:36:50;;;;;;;31.60;28.70;;;;;;;;;;4974938;28;20451;-83
2021/11/24 14:39:17;;;;;;;33.50;30.13;;;;;;;;;;4975074;28;20468;-83
2021/11/24 14:41:47;;;;;;;28.83;26.43;;;;;;;;;;4974502;28;20817;-84
2021/11/24 14:44:14;;;;;;;29.20;26.80;;;;;;;;;;4974392;28;20439;-84
2021/11/24 14:46:42;;;;;;;30.57;27.97;;;;;;;;;;4974347;28;20468;-84
2021/11/24 14:49:16;;;;;;;27.60;25.47;;;;;;;;;;4974759;28;20445;-84
2021/11/24 14:51:44;;;;;;;28.67;26.27;;;;;;;;;;4957199;28;20548;-84
2021/11/24 14:54:11;;;;;;;29.10;26.47;;;;;;;;;;4942097;28;20842;-87
2021/11/24 14:56:39;;;;;;;28.33;25.93;;;;;;;;;;4975457;28;20464;-87
2021/11/24 14:59:08;;;;;;;27.83;25.60;;;;;;;;;;4975416;28;20425;-87
2021/11/24 15:01:36;;;;;;;26.40;24.27;;;;;;;;;;4974251;28;20414;-88
2021/11/24 15:04:03;;;;;;;26.87;24.60;;;;;;;;;;4975151;28;20425;-88
2021/11/24 15:06:31;;;;;;;26.97;24.67;;;;;;;;;;4975170;28;20470;-87
2021/11/24 15:08:58;;;;;;;26.70;24.60;;;;;;;;;;4975547;28;20439;-86
2021/11/24 15:11:26;;;;;;;26.50;24.40;;;;;;;;;;4974585;28;20416;-87
2021/11/24 15:13:53;;;;;;;27.53;25.23;;;;;;;;;;4975133;28;20416;-87
2021/11/24 15:16:22;;;;;;;26.40;24.37;;;;;;;;;;4958218;28;20453;-86
2021/11/24 15:18:50;;;;;;;27.20;24.90;;;;;;;;;;4975358;28;20428;-86
2021/11/24 15:21:17;;;;;;;25.27;23.37;;;;;;;;;;4957714;28;20431;-87
2021/11/24 15:23:45;;;;;;;26.57;24.37;;;;;;;;;;4974854;28;20482;-87
2021/11/24 15:26:12;;;;;;;26.93;24.80;;;;;;;;;;4974808;28;20464;-84
2021/11/24 15:28:41;;;;;;;26.70;24.40;;;;;;;;;;4974606;28;20419;-84
2021/11/24 15:31:08;;;;;;;26.17;24.20;;;;;;;;;;4974758;28;20530;-88
2021/11/24 15:33:38;;;;;;;25.70;23.83;;;;;;;;;;4957557;28;20428;-88
2021/11/24 15:36:06;;;;;;;26.17;24.20;;;;;;;;;;4974784;28;20896;-89
2021/11/24 15:38:33;;;;;;;27.37;25.33;;;;;;;;;;4974834;28;20404;-85
2021/11/24 15:41:01;;;;;;;27.73;25.67;;;;;;;;;;4979437;28;20413;-94
2021/11/24 15:43:29;;;;;;;28.67;26.13;;;;;;;;;;4978960;28;20792;-91
2021/11/24 15:45:58;;;;;;;28.00;25.80;;;;;;;;;;4974779;28;20491;-87
2021/11/24 15:48:27;;;;;;;27.00;24.80;;;;;;;;;;4974003;28;20894;-88